Terminal Aerodrome Forecast
Issued by NWS

Home | Current Version | Previous Version | Text Only | Print | Product List | Glossary On
Versions: 1 2 3 4 5 6 7 8 9 10 11 12 13 14 15 16 17 18 19 20 21 22 23 24
287
FTAK31 PANC 272322
TAFAAQ
TAF
PAAQ 272322Z 2800/2824 18005KT P6SM VCSH SCT020 BKN080
     FM280900 VRB03KT P6SM SCT070 BKN120
     FM282100 VRB03KT P6SM VCSH SCT030 BKN060=

USA.gov is the U.S. government's official web portal to all federal, state and local government web resources and services.